This is the latest recevied weather packets stored in our database for station/object KO4LCK. If no packets are shown the sender has not sent any weather packets the latest 10 day(s).
| Time | Temp. | Humidity | Pressure | Rain* | Wind** | Luminosity | Snow |
|---|---|---|---|---|---|---|---|
| 1777817525 | 14.44° C | 66% | 1022.4 hPa | 0 mm | - | 468 W/m² | - |
| 1777817221 | 14.44° C | 65% | 1022.4 hPa | 0 mm | - | 452 W/m² | - |
| 1777816919 | 13.89° C | 68% | 1022.7 hPa | 0 mm | - | 439 W/m² | - |
| 1777816615 | 13.33° C | 64% | 1022.6 hPa | 0 mm | - | 425 W/m² | - |
| 1777816312 | 13.33° C | 65% | 1022.6 hPa | 0 mm | - | 410 W/m² | - |
| 1777816010 | 12.78° C | 69% | 1022.4 hPa | 0 mm | - | 393 W/m² | - |
| 1777815707 | 12.78° C | 66% | 1022.5 hPa | 0 mm | - | 381 W/m² | - |
| 1777815404 | 12.78° C | 66% | 1022.5 hPa | 0 mm | - | 364 W/m² | - |
| 1777815101 | 12.78° C | 66% | 1022.3 hPa | 0 mm | - | 350 W/m² | - |
| 1777814797 | 12.78° C | 66% | 1022.5 hPa | 0 mm | - | 335 W/m² | - |
| 1777814494 | 12.22° C | 69% | 1022.4 hPa | 0 mm | - | 319 W/m² | - |
| 1777814191 | 11.67° C | 71% | 1022.3 hPa | 0 mm | - | 303 W/m² | - |
| 1777813888 | 11.67° C | 72% | 1022.1 hPa | 0 mm | - | 265 W/m² | - |
| 1777813586 | 11.67° C | 76% | 1022.2 hPa | 0 mm | - | 231 W/m² | - |
| 1777813284 | 11.11° C | 76% | 1022.1 hPa | 0 mm | - | 207 W/m² | - |
| 1777812980 | 10.56° C | 80% | 1022 hPa | 0 mm | - | 178 W/m² | - |
| 1777812678 | 10° C | 85% | 1022 hPa | 0 mm | - | 159 W/m² | - |
| 1777812374 | 9.44° C | 90% | 1022.1 hPa | 0 mm | - | 142 W/m² | - |
| 1777812073 | 8.89° C | 94% | 1022 hPa | 0 mm | - | 132 W/m² | - |
| 1777811771 | 8.33° C | 95% | 1022 hPa | 0 mm | - | 121 W/m² | - |
| 1777811467 | 7.78° C | 96% | 1022.1 hPa | 0 mm | - | 111 W/m² | - |
| 1777811163 | 7.78° C | 96% | 1021.8 hPa | 0 mm | - | 39 W/m² | - |
| 1777810861 | 7.22° C | 96% | 1021.9 hPa | 0 mm | - | 37 W/m² | - |
| 1777810558 | 6.67° C | 96% | 1021.9 hPa | 0 mm | - | 36 W/m² | - |
| 1777810254 | 6.67° C | 96% | 1022 hPa | 0 mm | - | 35 W/m² | - |
* Rain latest hour (hover to see other rain measurements)
** Current wind speed in m/s (hover to see current wind gust speed)